sensor_id;sensor_type;location;lat;lon;timestamp;P1;durP1;ratioP1;P2;durP2;ratioP2
33459;SDS011;19795;53.160;6.612;2022-10-31T04:53:45;111.25;;;100.97;;
33459;SDS011;19795;53.160;6.612;2022-10-31T04:56:11;110.82;;;99.93;;
33459;SDS011;19795;53.160;6.612;2022-10-31T05:01:12;108.65;;;98.43;;
33459;SDS011;19795;53.160;6.612;2022-10-31T05:03:39;109.88;;;99.80;;
33459;SDS011;19795;53.160;6.612;2022-10-31T05:06:05;115.20;;;104.07;;
33459;SDS011;19795;53.160;6.612;2022-10-31T05:08:31;115.97;;;105.32;;
33459;SDS011;19795;53.160;6.612;2022-10-31T05:11:00;118.28;;;106.93;;
33459;SDS011;19795;53.160;6.612;2022-10-31T05:13:29;124.50;;;113.15;;
33459;SDS011;19795;53.160;6.612;2022-10-31T05:15:55;132.68;;;119.95;;
33459;SDS011;19795;53.160;6.612;2022-10-31T05:18:21;144.13;;;129.48;;
33459;SDS011;19795;53.160;6.612;2022-10-31T05:20:47;148.68;;;134.23;;
33459;SDS011;19795;53.160;6.612;2022-10-31T05:23:12;154.65;;;140.07;;
33459;SDS011;19795;53.160;6.612;2022-10-31T05:25:39;157.45;;;143.32;;
33459;SDS011;19795;53.160;6.612;2022-10-31T05:28:05;157.55;;;143.43;;
33459;SDS011;19795;53.160;6.612;2022-10-31T05:30:31;152.40;;;138.43;;
33459;SDS011;19795;53.160;6.612;2022-10-31T05:32:57;152.57;;;139.02;;
33459;SDS011;19795;53.160;6.612;2022-10-31T05:35:24;150.40;;;136.32;;
33459;SDS011;19795;53.160;6.612;2022-10-31T05:37:55;151.88;;;136.13;;
33459;SDS011;19795;53.160;6.612;2022-10-31T05:40:22;145.25;;;131.38;;
33459;SDS011;19795;53.160;6.612;2022-10-31T05:42:52;138.93;;;126.03;;
33459;SDS011;19795;53.160;6.612;2022-10-31T05:45:20;129.15;;;116.53;;
33459;SDS011;19795;53.160;6.612;2022-10-31T05:48:05;126.32;;;113.65;;
33459;SDS011;19795;53.160;6.612;2022-10-31T05:50:30;132.70;;;118.22;;
33459;SDS011;19795;53.160;6.612;2022-10-31T05:52:57;133.57;;;120.35;;
33459;SDS011;19795;53.160;6.612;2022-10-31T05:55:25;137.23;;;122.38;;
33459;SDS011;19795;53.160;6.612;2022-10-31T05:57:51;122.50;;;110.75;;
33459;SDS011;19795;53.160;6.612;2022-10-31T06:00:18;128.75;;;115.82;;
33459;SDS011;19795;53.160;6.612;2022-10-31T06:02:44;125.82;;;113.47;;
33459;SDS011;19795;53.160;6.612;2022-10-31T06:05:09;127.00;;;115.05;;
33459;SDS011;19795;53.160;6.612;2022-10-31T06:07:35;118.78;;;107.88;;
33459;SDS011;19795;53.160;6.612;2022-10-31T06:10:04;116.20;;;104.80;;
33459;SDS011;19795;53.160;6.612;2022-10-31T06:12:31;122.78;;;110.07;;
33459;SDS011;19795;53.160;6.612;2022-10-31T06:14:56;131.75;;;119.05;;
33459;SDS011;19795;53.160;6.612;2022-10-31T06:17:22;132.13;;;119.90;;
33459;SDS011;19795;53.160;6.612;2022-10-31T06:19:48;137.93;;;124.43;;
33459;SDS011;19795;53.160;6.612;2022-10-31T06:22:13;135.63;;;121.70;;
33459;SDS011;19795;53.160;6.612;2022-10-31T06:24:39;134.45;;;121.43;;
33459;SDS011;19795;53.160;6.612;2022-10-31T06:27:05;136.52;;;123.72;;
33459;SDS011;19795;53.160;6.612;2022-10-31T06:29:30;135.30;;;120.85;;
33459;SDS011;19795;53.160;6.612;2022-10-31T06:31:56;129.90;;;113.50;;
33459;SDS011;19795;53.160;6.612;2022-10-31T06:34:22;119.45;;;108.10;;
33459;SDS011;19795;53.160;6.612;2022-10-31T06:36:47;113.18;;;102.18;;
33459;SDS011;19795;53.160;6.612;2022-10-31T06:39:13;109.85;;;99.30;;
33459;SDS011;19795;53.160;6.612;2022-10-31T06:41:39;102.88;;;92.75;;
33459;SDS011;19795;53.160;6.612;2022-10-31T06:44:06;107.80;;;97.18;;
33459;SDS011;19795;53.160;6.612;2022-10-31T06:46:32;104.35;;;94.28;;
33459;SDS011;19795;53.160;6.612;2022-10-31T06:48:58;104.45;;;94.13;;
33459;SDS011;19795;53.160;6.612;2022-10-31T06:51:24;114.70;;;103.18;;
33459;SDS011;19795;53.160;6.612;2022-10-31T06:53:52;111.70;;;100.72;;
33459;SDS011;19795;53.160;6.612;2022-10-31T06:56:18;113.30;;;101.70;;
33459;SDS011;19795;53.160;6.612;2022-10-31T06:58:43;114.72;;;103.72;;
33459;SDS011;19795;53.160;6.612;2022-10-31T07:01:09;126.20;;;113.40;;
33459;SDS011;19795;53.160;6.612;2022-10-31T07:03:34;122.90;;;111.15;;
33459;SDS011;19795;53.160;6.612;2022-10-31T07:06:00;135.68;;;122.75;;
33459;SDS011;19795;53.160;6.612;2022-10-31T07:08:26;131.57;;;118.93;;
33459;SDS011;19795;53.160;6.612;2022-10-31T07:10:52;138.85;;;125.55;;
33459;SDS011;19795;53.160;6.612;2022-10-31T07:13:19;135.68;;;123.10;;
33459;SDS011;19795;53.160;6.612;2022-10-31T07:15:50;150.80;;;136.35;;
33459;SDS011;19795;53.160;6.612;2022-10-31T07:18:20;137.60;;;124.82;;
33459;SDS011;19795;53.160;6.612;2022-10-31T07:20:46;133.10;;;119.90;;
33459;SDS011;19795;53.160;6.612;2022-10-31T07:23:13;142.77;;;128.80;;
33459;SDS011;19795;53.160;6.612;2022-10-31T07:25:39;155.45;;;141.88;;
33459;SDS011;19795;53.160;6.612;2022-10-31T07:28:05;154.15;;;140.40;;
33459;SDS011;19795;53.160;6.612;2022-10-31T07:30:31;166.43;;;152.88;;
33459;SDS011;19795;53.160;6.612;2022-10-31T07:32:56;171.52;;;157.70;;
33459;SDS011;19795;53.160;6.612;2022-10-31T07:35:23;181.05;;;166.40;;
33459;SDS011;19795;53.160;6.612;2022-10-31T07:37:50;190.23;;;175.25;;
33459;SDS011;19795;53.160;6.612;2022-10-31T07:40:16;156.45;;;142.85;;
33459;SDS011;19795;53.160;6.612;2022-10-31T07:42:44;202.52;;;187.25;;
33459;SDS011;19795;53.160;6.612;2022-10-31T07:45:13;209.43;;;193.98;;
33459;SDS011;19795;53.160;6.612;2022-10-31T07:47:47;211.75;;;196.10;;
33459;SDS011;19795;53.160;6.612;2022-10-31T07:50:15;216.50;;;200.93;;
33459;SDS011;19795;53.160;6.612;2022-10-31T07:52:47;236.27;;;219.75;;
33459;SDS011;19795;53.160;6.612;2022-10-31T07:55:13;229.32;;;213.43;;
33459;SDS011;19795;53.160;6.612;2022-10-31T07:57:39;229.45;;;213.93;;
33459;SDS011;19795;53.160;6.612;2022-10-31T08:00:06;228.88;;;213.90;;
33459;SDS011;19795;53.160;6.612;2022-10-31T08:02:33;219.80;;;205.68;;
33459;SDS011;19795;53.160;6.612;2022-10-31T08:04:59;229.98;;;214.50;;
33459;SDS011;19795;53.160;6.612;2022-10-31T08:07:26;242.00;;;226.35;;
33459;SDS011;19795;53.160;6.612;2022-10-31T08:09:53;220.43;;;205.27;;
33459;SDS011;19795;53.160;6.612;2022-10-31T08:12:19;225.13;;;209.93;;
33459;SDS011;19795;53.160;6.612;2022-10-31T08:14:45;217.45;;;202.82;;
33459;SDS011;19795;53.160;6.612;2022-10-31T08:17:11;222.75;;;207.95;;
33459;SDS011;19795;53.160;6.612;2022-10-31T08:19:36;214.02;;;199.70;;
33459;SDS011;19795;53.160;6.612;2022-10-31T08:22:02;210.57;;;197.25;;
33459;SDS011;19795;53.160;6.612;2022-10-31T08:24:28;193.52;;;180.43;;
33459;SDS011;19795;53.160;6.612;2022-10-31T08:26:53;192.95;;;180.15;;
33459;SDS011;19795;53.160;6.612;2022-10-31T08:29:19;181.68;;;169.57;;
33459;SDS011;19795;53.160;6.612;2022-10-31T08:31:45;175.13;;;163.27;;
33459;SDS011;19795;53.160;6.612;2022-10-31T08:34:10;160.07;;;149.65;;
33459;SDS011;19795;53.160;6.612;2022-10-31T08:36:36;160.02;;;149.05;;
33459;SDS011;19795;53.160;6.612;2022-10-31T08:39:02;152.10;;;141.25;;
33459;SDS011;19795;53.160;6.612;2022-10-31T08:41:28;140.93;;;130.82;;
33459;SDS011;19795;53.160;6.612;2022-10-31T08:43:53;135.40;;;125.70;;
33459;SDS011;19795;53.160;6.612;2022-10-31T08:46:19;132.00;;;123.05;;
33459;SDS011;19795;53.160;6.612;2022-10-31T08:48:47;122.50;;;114.05;;
33459;SDS011;19795;53.160;6.612;2022-10-31T08:51:13;115.90;;;107.38;;
33459;SDS011;19795;53.160;6.612;2022-10-31T08:53:39;109.38;;;101.80;;
33459;SDS011;19795;53.160;6.612;2022-10-31T08:56:05;112.35;;;104.50;;
33459;SDS011;19795;53.160;6.612;2022-10-31T08:58:31;99.00;;;91.82;;
33459;SDS011;19795;53.160;6.612;2022-10-31T09:00:58;92.40;;;85.85;;
33459;SDS011;19795;53.160;6.612;2022-10-31T09:03:26;82.78;;;76.43;;
33459;SDS011;19795;53.160;6.612;2022-10-31T09:05:56;80.40;;;74.68;;
33459;SDS011;19795;53.160;6.612;2022-10-31T09:08:23;77.55;;;71.65;;
33459;SDS011;19795;53.160;6.612;2022-10-31T09:10:49;69.95;;;64.50;;
33459;SDS011;19795;53.160;6.612;2022-10-31T09:13:19;61.97;;;57.08;;
33459;SDS011;19795;53.160;6.612;2022-10-31T09:15:46;58.25;;;53.42;;
33459;SDS011;19795;53.160;6.612;2022-10-31T09:18:14;55.42;;;50.95;;
33459;SDS011;19795;53.160;6.612;2022-10-31T09:20:42;53.92;;;49.35;;
33459;SDS011;19795;53.160;6.612;2022-10-31T09:23:13;47.28;;;43.10;;
33459;SDS011;19795;53.160;6.612;2022-10-31T09:25:43;45.78;;;41.42;;
33459;SDS011;19795;53.160;6.612;2022-10-31T09:28:11;44.17;;;40.25;;
33459;SDS011;19795;53.160;6.612;2022-10-31T09:30:38;38.17;;;34.72;;
33459;SDS011;19795;53.160;6.612;2022-10-31T09:33:05;33.00;;;29.92;;
33459;SDS011;19795;53.160;6.612;2022-10-31T09:35:36;34.28;;;30.80;;
33459;SDS011;19795;53.160;6.612;2022-10-31T09:38:05;30.98;;;27.70;;
33459;SDS011;19795;53.160;6.612;2022-10-31T09:40:35;30.13;;;25.58;;
33459;SDS011;19795;53.160;6.612;2022-10-31T09:51:06;26.42;;;21.73;;
33459;SDS011;19795;53.160;6.612;2022-10-31T09:53:59;25.55;;;22.38;;
33459;SDS011;19795;53.160;6.612;2022-10-31T09:56:38;26.23;;;21.52;;
33459;SDS011;19795;53.160;6.612;2022-10-31T09:59:05;24.75;;;20.60;;
33459;SDS011;19795;53.160;6.612;2022-10-31T10:04:13;26.73;;;20.60;;
33459;SDS011;19795;53.160;6.612;2022-10-31T10:06:46;21.25;;;17.80;;
33459;SDS011;19795;53.160;6.612;2022-10-31T10:09:14;19.38;;;16.60;;
33459;SDS011;19795;53.160;6.612;2022-10-31T10:20:02;11.20;;;10.00;;
33459;SDS011;19795;53.160;6.612;2022-10-31T10:25:24;12.65;;;9.48;;
33459;SDS011;19795;53.160;6.612;2022-10-31T10:33:14;15.48;;;11.27;;
33459;SDS011;19795;53.160;6.612;2022-10-31T10:35:50;15.25;;;10.80;;
33459;SDS011;19795;53.160;6.612;2022-10-31T10:38:35;15.50;;;11.15;;
33459;SDS011;19795;53.160;6.612;2022-10-31T10:41:16;16.95;;;11.25;;
33459;SDS011;19795;53.160;6.612;2022-10-31T10:43:43;15.63;;;10.77;;
33459;SDS011;19795;53.160;6.612;2022-10-31T10:46:23;15.20;;;11.27;;
33459;SDS011;19795;53.160;6.612;2022-10-31T10:49:17;17.60;;;10.20;;
33459;SDS011;19795;53.160;6.612;2022-10-31T10:54:48;14.65;;;9.93;;
33459;SDS011;19795;53.160;6.612;2022-10-31T11:02:46;13.70;;;9.60;;
33459;SDS011;19795;53.160;6.612;2022-10-31T11:08:07;12.57;;;8.48;;
33459;SDS011;19795;53.160;6.612;2022-10-31T11:10:34;12.30;;;9.07;;
33459;SDS011;19795;53.160;6.612;2022-10-31T11:13:17;13.65;;;9.13;;
33459;SDS011;19795;53.160;6.612;2022-10-31T11:15:50;11.40;;;8.48;;
33459;SDS011;19795;53.160;6.612;2022-10-31T11:18:34;14.35;;;8.10;;
33459;SDS011;19795;53.160;6.612;2022-10-31T11:21:04;13.20;;;7.45;;
33459;SDS011;19795;53.160;6.612;2022-10-31T11:23:31;10.85;;;7.13;;
33459;SDS011;19795;53.160;6.612;2022-10-31T11:26:01;11.05;;;6.90;;
33459;SDS011;19795;53.160;6.612;2022-10-31T11:28:30;10.25;;;6.47;;
33459;SDS011;19795;53.160;6.612;2022-10-31T11:31:00;13.20;;;6.80;;
33459;SDS011;19795;53.160;6.612;2022-10-31T11:33:38;12.45;;;6.32;;
33459;SDS011;19795;53.160;6.612;2022-10-31T11:36:25;11.07;;;6.28;;
33459;SDS011;19795;53.160;6.612;2022-10-31T11:38:55;11.25;;;6.28;;
33459;SDS011;19795;53.160;6.612;2022-10-31T11:41:25;8.93;;;5.93;;
33459;SDS011;19795;53.160;6.612;2022-10-31T11:43:57;13.25;;;6.20;;
33459;SDS011;19795;53.160;6.612;2022-10-31T11:46:39;11.40;;;5.70;;
33459;SDS011;19795;53.160;6.612;2022-10-31T11:51:51;12.10;;;6.35;;
33459;SDS011;19795;53.160;6.612;2022-10-31T11:54:21;8.27;;;5.55;;
33459;SDS011;19795;53.160;6.612;2022-10-31T11:56:52;12.60;;;5.88;;
33459;SDS011;19795;53.160;6.612;2022-10-31T11:59:21;12.38;;;6.28;;
33459;SDS011;19795;53.160;6.612;2022-10-31T12:01:53;10.05;;;6.20;;
33459;SDS011;19795;53.160;6.612;2022-10-31T12:04:23;13.18;;;5.78;;
33459;SDS011;19795;53.160;6.612;2022-10-31T12:06:59;10.05;;;6.05;;
33459;SDS011;19795;53.160;6.612;2022-10-31T12:09:27;14.35;;;6.80;;
33459;SDS011;19795;53.160;6.612;2022-10-31T12:17:43;11.82;;;5.55;;
33459;SDS011;19795;53.160;6.612;2022-10-31T12:23:04;18.67;;;6.60;;
33459;SDS011;19795;53.160;6.612;2022-10-31T12:25:58;10.98;;;5.97;;
33459;SDS011;19795;53.160;6.612;2022-10-31T12:42:46;12.18;;;6.60;;
33459;SDS011;19795;53.160;6.612;2022-10-31T12:45:23;13.27;;;6.60;;
33459;SDS011;19795;53.160;6.612;2022-10-31T12:50:47;12.05;;;5.60;;
33459;SDS011;19795;53.160;6.612;2022-10-31T12:58:59;13.07;;;4.68;;
33459;SDS011;19795;53.160;6.612;2022-10-31T13:01:34;8.48;;;4.57;;
33459;SDS011;19795;53.160;6.612;2022-10-31T13:04:15;10.18;;;4.78;;
33459;SDS011;19795;53.160;6.612;2022-10-31T13:07:02;13.18;;;5.50;;
33459;SDS011;19795;53.160;6.612;2022-10-31T13:09:59;12.27;;;5.13;;
33459;SDS011;19795;53.160;6.612;2022-10-31T13:12:37;13.38;;;5.50;;
33459;SDS011;19795;53.160;6.612;2022-10-31T13:15:15;14.68;;;5.40;;
33459;SDS011;19795;53.160;6.612;2022-10-31T13:18:03;13.50;;;5.10;;
33459;SDS011;19795;53.160;6.612;2022-10-31T13:20:37;14.80;;;5.32;;
33459;SDS011;19795;53.160;6.612;2022-10-31T13:23:24;14.48;;;6.00;;
33459;SDS011;19795;53.160;6.612;2022-10-31T13:25:58;11.20;;;4.95;;
33459;SDS011;19795;53.160;6.612;2022-10-31T13:28:46;13.60;;;5.30;;
33459;SDS011;19795;53.160;6.612;2022-10-31T13:31:17;10.30;;;4.88;;
33459;SDS011;19795;53.160;6.612;2022-10-31T13:33:44;10.50;;;4.80;;
33459;SDS011;19795;53.160;6.612;2022-10-31T13:42:08;10.75;;;4.40;;
33459;SDS011;19795;53.160;6.612;2022-10-31T13:44:40;10.43;;;4.88;;
33459;SDS011;19795;53.160;6.612;2022-10-31T13:49:48;10.82;;;4.53;;
33459;SDS011;19795;53.160;6.612;2022-10-31T13:52:16;12.32;;;4.97;;
33459;SDS011;19795;53.160;6.612;2022-10-31T13:54:49;10.02;;;5.15;;
33459;SDS011;19795;53.160;6.612;2022-10-31T14:02:47;12.35;;;5.32;;
33459;SDS011;19795;53.160;6.612;2022-10-31T14:05:29;12.80;;;5.53;;
33459;SDS011;19795;53.160;6.612;2022-10-31T14:07:58;10.75;;;5.55;;
33459;SDS011;19795;53.160;6.612;2022-10-31T14:10:30;11.07;;;5.38;;
33459;SDS011;19795;53.160;6.612;2022-10-31T14:13:20;12.82;;;6.10;;
33459;SDS011;19795;53.160;6.612;2022-10-31T14:15:57;13.25;;;5.80;;
33459;SDS011;19795;53.160;6.612;2022-10-31T14:20:57;14.73;;;6.28;;
33459;SDS011;19795;53.160;6.612;2022-10-31T14:28:48;10.23;;;5.30;;
33459;SDS011;19795;53.160;6.612;2022-10-31T14:34:21;12.93;;;5.25;;
33459;SDS011;19795;53.160;6.612;2022-10-31T14:51:01;15.23;;;6.55;;
33459;SDS011;19795;53.160;6.612;2022-10-31T14:53:35;14.90;;;7.13;;
33459;SDS011;19795;53.160;6.612;2022-10-31T14:56:09;14.07;;;6.57;;
33459;SDS011;19795;53.160;6.612;2022-10-31T15:01:15;17.27;;;7.50;;
33459;SDS011;19795;53.160;6.612;2022-10-31T15:03:48;15.82;;;6.88;;
33459;SDS011;19795;53.160;6.612;2022-10-31T15:06:14;17.77;;;7.15;;
33459;SDS011;19795;53.160;6.612;2022-10-31T15:08:52;15.27;;;7.70;;
33459;SDS011;19795;53.160;6.612;2022-10-31T15:11:21;14.40;;;6.93;;
33459;SDS011;19795;53.160;6.612;2022-10-31T15:13:52;13.35;;;6.82;;
33459;SDS011;19795;53.160;6.612;2022-10-31T15:16:22;18.80;;;6.63;;
33459;SDS011;19795;53.160;6.612;2022-10-31T15:18:56;14.10;;;6.70;;
33459;SDS011;19795;53.160;6.612;2022-10-31T15:21:25;12.80;;;6.63;;
33459;SDS011;19795;53.160;6.612;2022-10-31T15:23:57;15.70;;;6.57;;
33459;SDS011;19795;53.160;6.612;2022-10-31T15:26:27;17.52;;;6.97;;
33459;SDS011;19795;53.160;6.612;2022-10-31T15:28:58;15.82;;;6.78;;
33459;SDS011;19795;53.160;6.612;2022-10-31T15:31:25;12.98;;;6.97;;
33459;SDS011;19795;53.160;6.612;2022-10-31T15:33:51;19.25;;;7.97;;
33459;SDS011;19795;53.160;6.612;2022-10-31T15:36:23;13.35;;;6.75;;
33459;SDS011;19795;53.160;6.612;2022-10-31T15:38:50;16.02;;;6.68;;
33459;SDS011;19795;53.160;6.612;2022-10-31T15:44:15;15.15;;;6.38;;
33459;SDS011;19795;53.160;6.612;2022-10-31T15:46:52;12.57;;;6.40;;
33459;SDS011;19795;53.160;6.612;2022-10-31T15:49:39;12.57;;;6.38;;
33459;SDS011;19795;53.160;6.612;2022-10-31T15:54:48;11.60;;;6.18;;
33459;SDS011;19795;53.160;6.612;2022-10-31T15:57:17;11.63;;;6.18;;
33459;SDS011;19795;53.160;6.612;2022-10-31T15:59:45;11.98;;;6.00;;
33459;SDS011;19795;53.160;6.612;2022-10-31T16:02:12;13.02;;;5.57;;
33459;SDS011;19795;53.160;6.612;2022-10-31T16:07:25;11.75;;;5.60;;
33459;SDS011;19795;53.160;6.612;2022-10-31T16:09:54;10.27;;;4.95;;
33459;SDS011;19795;53.160;6.612;2022-10-31T16:15:02;9.98;;;4.57;;
33459;SDS011;19795;53.160;6.612;2022-10-31T16:17:29;11.60;;;5.07;;
33459;SDS011;19795;53.160;6.612;2022-10-31T16:20:03;9.93;;;4.93;;
33459;SDS011;19795;53.160;6.612;2022-10-31T16:22:31;12.60;;;5.78;;
33459;SDS011;19795;53.160;6.612;2022-10-31T16:27:39;9.15;;;5.32;;
33459;SDS011;19795;53.160;6.612;2022-10-31T16:33:03;8.85;;;4.55;;
33459;SDS011;19795;53.160;6.612;2022-10-31T16:35:34;13.77;;;5.53;;
33459;SDS011;19795;53.160;6.612;2022-10-31T16:38:00;10.75;;;5.80;;
33459;SDS011;19795;53.160;6.612;2022-10-31T16:40:26;9.15;;;4.82;;
33459;SDS011;19795;53.160;6.612;2022-10-31T16:42:52;11.13;;;5.95;;
33459;SDS011;19795;53.160;6.612;2022-10-31T16:45:19;11.27;;;6.03;;
33459;SDS011;19795;53.160;6.612;2022-10-31T16:47:46;9.50;;;5.63;;
33459;SDS011;19795;53.160;6.612;2022-10-31T16:50:16;9.07;;;5.47;;
33459;SDS011;19795;53.160;6.612;2022-10-31T16:52:47;11.07;;;6.25;;
33459;SDS011;19795;53.160;6.612;2022-10-31T16:55:14;11.40;;;6.05;;
33459;SDS011;19795;53.160;6.612;2022-10-31T16:57:42;13.95;;;6.55;;
33459;SDS011;19795;53.160;6.612;2022-10-31T17:00:12;12.77;;;7.10;;
33459;SDS011;19795;53.160;6.612;2022-10-31T17:02:39;14.15;;;6.90;;
33459;SDS011;19795;53.160;6.612;2022-10-31T17:05:08;12.43;;;7.15;;
33459;SDS011;19795;53.160;6.612;2022-10-31T17:07:36;10.00;;;7.10;;
33459;SDS011;19795;53.160;6.612;2022-10-31T17:10:02;12.00;;;7.78;;
33459;SDS011;19795;53.160;6.612;2022-10-31T17:12:28;10.75;;;7.53;;
33459;SDS011;19795;53.160;6.612;2022-10-31T17:14:53;12.70;;;8.38;;
33459;SDS011;19795;53.160;6.612;2022-10-31T17:17:19;12.50;;;7.90;;
33459;SDS011;19795;53.160;6.612;2022-10-31T17:19:44;11.73;;;8.10;;
33459;SDS011;19795;53.160;6.612;2022-10-31T17:22:13;14.10;;;8.32;;
33459;SDS011;19795;53.160;6.612;2022-10-31T17:24:41;13.30;;;8.77;;
33459;SDS011;19795;53.160;6.612;2022-10-31T17:27:07;13.45;;;9.10;;
33459;SDS011;19795;53.160;6.612;2022-10-31T17:29:33;11.57;;;7.15;;
33459;SDS011;19795;53.160;6.612;2022-10-31T17:31:59;14.93;;;9.32;;
33459;SDS011;19795;53.160;6.612;2022-10-31T17:34:25;13.88;;;9.68;;
33459;SDS011;19795;53.160;6.612;2022-10-31T17:36:51;15.40;;;9.65;;
33459;SDS011;19795;53.160;6.612;2022-10-31T17:39:20;17.55;;;11.00;;
33459;SDS011;19795;53.160;6.612;2022-10-31T17:41:50;18.55;;;11.93;;
33459;SDS011;19795;53.160;6.612;2022-10-31T17:44:16;19.23;;;12.00;;
33459;SDS011;19795;53.160;6.612;2022-10-31T17:46:43;18.67;;;11.75;;
33459;SDS011;19795;53.160;6.612;2022-10-31T17:49:09;18.95;;;12.52;;
33459;SDS011;19795;53.160;6.612;2022-10-31T17:51:36;20.33;;;12.98;;
33459;SDS011;19795;53.160;6.612;2022-10-31T17:54:02;20.63;;;13.57;;
33459;SDS011;19795;53.160;6.612;2022-10-31T17:56:29;21.58;;;14.00;;
33459;SDS011;19795;53.160;6.612;2022-10-31T17:58:55;16.70;;;12.75;;
33459;SDS011;19795;53.160;6.612;2022-10-31T18:01:22;21.73;;;15.57;;
33459;SDS011;19795;53.160;6.612;2022-10-31T18:03:48;24.02;;;16.60;;
33459;SDS011;19795;53.160;6.612;2022-10-31T18:06:14;21.10;;;14.80;;
33459;SDS011;19795;53.160;6.612;2022-10-31T18:08:41;23.38;;;16.70;;
33459;SDS011;19795;53.160;6.612;2022-10-31T18:11:08;23.45;;;16.88;;
33459;SDS011;19795;53.160;6.612;2022-10-31T18:13:39;22.23;;;15.68;;
33459;SDS011;19795;53.160;6.612;2022-10-31T18:16:08;21.75;;;15.48;;
33459;SDS011;19795;53.160;6.612;2022-10-31T18:18:35;25.35;;;16.08;;
33459;SDS011;19795;53.160;6.612;2022-10-31T18:21:00;21.83;;;15.93;;
33459;SDS011;19795;53.160;6.612;2022-10-31T18:23:26;23.98;;;17.85;;
33459;SDS011;19795;53.160;6.612;2022-10-31T18:25:52;24.38;;;16.05;;
33459;SDS011;19795;53.160;6.612;2022-10-31T18:28:19;22.90;;;16.65;;
33459;SDS011;19795;53.160;6.612;2022-10-31T18:30:45;22.33;;;17.15;;
33459;SDS011;19795;53.160;6.612;2022-10-31T18:33:11;24.58;;;17.35;;
33459;SDS011;19795;53.160;6.612;2022-10-31T18:35:37;22.63;;;15.90;;
33459;SDS011;19795;53.160;6.612;2022-10-31T18:38:03;25.40;;;15.98;;
33459;SDS011;19795;53.160;6.612;2022-10-31T18:40:33;30.00;;;17.45;;
33459;SDS011;19795;53.160;6.612;2022-10-31T18:43:00;23.48;;;17.25;;
33459;SDS011;19795;53.160;6.612;2022-10-31T18:45:26;21.77;;;17.17;;
33459;SDS011;19795;53.160;6.612;2022-10-31T18:47:54;25.25;;;17.35;;
33459;SDS011;19795;53.160;6.612;2022-10-31T18:50:22;26.05;;;19.13;;
33459;SDS011;19795;53.160;6.612;2022-10-31T18:52:48;25.13;;;18.00;;
33459;SDS011;19795;53.160;6.612;2022-10-31T18:55:14;29.42;;;18.80;;
33459;SDS011;19795;53.160;6.612;2022-10-31T18:57:40;27.83;;;19.08;;
33459;SDS011;19795;53.160;6.612;2022-10-31T19:00:06;26.38;;;19.00;;
33459;SDS011;19795;53.160;6.612;2022-10-31T19:02:32;28.65;;;19.42;;
33459;SDS011;19795;53.160;6.612;2022-10-31T19:04:58;29.08;;;20.75;;
33459;SDS011;19795;53.160;6.612;2022-10-31T19:07:23;31.55;;;20.25;;
33459;SDS011;19795;53.160;6.612;2022-10-31T19:09:49;25.80;;;19.33;;
33459;SDS011;19795;53.160;6.612;2022-10-31T19:12:15;23.73;;;19.05;;
33459;SDS011;19795;53.160;6.612;2022-10-31T19:14:40;31.40;;;20.83;;
33459;SDS011;19795;53.160;6.612;2022-10-31T19:17:06;28.58;;;21.27;;
33459;SDS011;19795;53.160;6.612;2022-10-31T19:19:32;31.55;;;22.52;;
33459;SDS011;19795;53.160;6.612;2022-10-31T19:21:58;29.23;;;22.50;;
33459;SDS011;19795;53.160;6.612;2022-10-31T19:24:23;32.30;;;23.45;;
33459;SDS011;19795;53.160;6.612;2022-10-31T19:26:49;31.67;;;23.10;;
33459;SDS011;19795;53.160;6.612;2022-10-31T19:29:17;28.23;;;22.17;;
33459;SDS011;19795;53.160;6.612;2022-10-31T19:31:46;34.67;;;23.63;;
33459;SDS011;19795;53.160;6.612;2022-10-31T19:34:12;30.10;;;23.48;;
33459;SDS011;19795;53.160;6.612;2022-10-31T19:36:38;30.65;;;23.65;;
33459;SDS011;19795;53.160;6.612;2022-10-31T19:39:03;30.67;;;24.00;;
33459;SDS011;19795;53.160;6.612;2022-10-31T19:41:29;31.38;;;23.75;;
33459;SDS011;19795;53.160;6.612;2022-10-31T19:43:57;31.10;;;25.17;;
33459;SDS011;19795;53.160;6.612;2022-10-31T19:46:23;33.90;;;25.73;;
33459;SDS011;19795;53.160;6.612;2022-10-31T19:48:49;33.45;;;26.38;;
33459;SDS011;19795;53.160;6.612;2022-10-31T19:51:17;34.00;;;27.00;;
33459;SDS011;19795;53.160;6.612;2022-10-31T19:53:44;33.80;;;28.17;;
33459;SDS011;19795;53.160;6.612;2022-10-31T19:56:11;38.30;;;28.55;;
33459;SDS011;19795;53.160;6.612;2022-10-31T20:01:10;34.17;;;27.88;;
33459;SDS011;19795;53.160;6.612;2022-10-31T20:03:37;34.75;;;28.13;;
33459;SDS011;19795;53.160;6.612;2022-10-31T20:06:04;39.17;;;30.30;;
33459;SDS011;19795;53.160;6.612;2022-10-31T20:08:30;39.28;;;29.70;;
33459;SDS011;19795;53.160;6.612;2022-10-31T20:11:00;33.17;;;28.60;;
33459;SDS011;19795;53.160;6.612;2022-10-31T20:13:30;39.22;;;29.60;;
33459;SDS011;19795;53.160;6.612;2022-10-31T20:15:58;36.83;;;29.48;;
33459;SDS011;19795;53.160;6.612;2022-10-31T20:18:25;39.00;;;31.33;;
33459;SDS011;19795;53.160;6.612;2022-10-31T20:20:51;38.85;;;30.50;;
33459;SDS011;19795;53.160;6.612;2022-10-31T20:23:17;40.85;;;31.45;;
33459;SDS011;19795;53.160;6.612;2022-10-31T20:25:47;35.58;;;31.17;;
33459;SDS011;19795;53.160;6.612;2022-10-31T20:28:13;41.17;;;31.35;;
33459;SDS011;19795;53.160;6.612;2022-10-31T20:30:39;37.40;;;30.80;;
33459;SDS011;19795;53.160;6.612;2022-10-31T20:33:05;40.42;;;31.02;;
33459;SDS011;19795;53.160;6.612;2022-10-31T20:35:34;39.30;;;32.45;;
33459;SDS011;19795;53.160;6.612;2022-10-31T20:38:01;36.25;;;31.50;;
33459;SDS011;19795;53.160;6.612;2022-10-31T20:40:28;46.42;;;33.42;;
33459;SDS011;19795;53.160;6.612;2022-10-31T20:42:54;42.10;;;34.97;;
33459;SDS011;19795;53.160;6.612;2022-10-31T20:45:20;39.92;;;33.13;;
33459;SDS011;19795;53.160;6.612;2022-10-31T20:47:46;38.35;;;32.13;;
33459;SDS011;19795;53.160;6.612;2022-10-31T20:50:11;42.90;;;34.05;;
33459;SDS011;19795;53.160;6.612;2022-10-31T20:52:37;45.95;;;35.33;;
33459;SDS011;19795;53.160;6.612;2022-10-31T20:55:04;44.10;;;34.90;;
33459;SDS011;19795;53.160;6.612;2022-10-31T20:57:31;47.67;;;36.10;;
33459;SDS011;19795;53.160;6.612;2022-10-31T20:59:56;46.40;;;37.25;;
33459;SDS011;19795;53.160;6.612;2022-10-31T21:02:22;45.33;;;37.20;;
33459;SDS011;19795;53.160;6.612;2022-10-31T21:04:48;44.45;;;35.97;;
33459;SDS011;19795;53.160;6.612;2022-10-31T21:07:13;40.05;;;34.40;;
33459;SDS011;19795;53.160;6.612;2022-10-31T21:09:39;40.47;;;36.08;;
33459;SDS011;19795;53.160;6.612;2022-10-31T21:12:05;44.85;;;36.83;;
33459;SDS011;19795;53.160;6.612;2022-10-31T21:14:31;44.55;;;37.55;;
33459;SDS011;19795;53.160;6.612;2022-10-31T21:16:56;45.28;;;39.03;;
33459;SDS011;19795;53.160;6.612;2022-10-31T21:19:22;43.13;;;36.92;;
33459;SDS011;19795;53.160;6.612;2022-10-31T21:21:48;46.85;;;40.35;;
33459;SDS011;19795;53.160;6.612;2022-10-31T21:24:14;47.75;;;39.55;;
33459;SDS011;19795;53.160;6.612;2022-10-31T21:26:43;47.60;;;38.53;;
33459;SDS011;19795;53.160;6.612;2022-10-31T21:29:11;44.78;;;38.75;;
33459;SDS011;19795;53.160;6.612;2022-10-31T21:31:38;43.83;;;36.88;;
33459;SDS011;19795;53.160;6.612;2022-10-31T21:34:04;48.95;;;39.70;;
33459;SDS011;19795;53.160;6.612;2022-10-31T21:36:31;42.83;;;38.00;;